createdAt,value
2022-12-11T00:01:57.542Z,0.59
2022-12-11T00:04:24.227Z,0.59
2022-12-11T00:06:50.996Z,0.58
2022-12-11T00:09:18.626Z,0.58
2022-12-11T00:11:45.459Z,0.60
2022-12-11T00:14:13.219Z,0.61
2022-12-11T00:16:40.061Z,0.62
2022-12-11T00:19:06.897Z,0.61
2022-12-11T00:21:33.893Z,0.64
2022-12-11T00:24:00.698Z,0.65
2022-12-11T00:26:27.207Z,0.64
2022-12-11T00:28:55.669Z,0.64
2022-12-11T00:31:23.554Z,0.65
2022-12-11T00:33:51.208Z,0.68
2022-12-11T00:36:20.989Z,0.68
2022-12-11T00:38:48.844Z,0.67
2022-12-11T00:41:16.379Z,0.69
2022-12-11T00:43:43.432Z,0.69
2022-12-11T00:46:11.173Z,0.70
2022-12-11T00:48:38.388Z,0.69
2022-12-11T00:51:05.212Z,0.69
2022-12-11T00:53:32.125Z,0.70
2022-12-11T00:55:58.621Z,0.71
2022-12-11T00:58:25.243Z,0.72
2022-12-11T01:00:52.582Z,0.74
2022-12-11T01:03:19.170Z,0.73
2022-12-11T01:05:53.427Z,0.73
2022-12-11T01:08:20.065Z,0.73
2022-12-11T01:10:46.953Z,0.75
2022-12-11T01:13:13.664Z,0.76
2022-12-11T01:15:45.202Z,0.77
2022-12-11T01:18:13.808Z,0.77
2022-12-11T01:20:42.713Z,0.78
2022-12-11T01:23:13.043Z,0.79
2022-12-11T01:25:40.388Z,0.79
2022-12-11T01:28:07.756Z,0.79
2022-12-11T01:30:34.963Z,0.80
2022-12-11T01:33:01.465Z,0.80
2022-12-11T01:35:28.562Z,0.80
2022-12-11T01:37:55.654Z,0.81
2022-12-11T01:40:22.568Z,0.81
2022-12-11T01:42:49.176Z,0.81
2022-12-11T01:45:21.579Z,0.81
2022-12-11T01:47:49.232Z,0.81
2022-12-11T01:50:16.128Z,0.82
2022-12-11T01:52:47.200Z,0.83
2022-12-11T01:55:14.390Z,0.82
2022-12-11T01:57:43.370Z,0.83
2022-12-11T02:00:10.787Z,0.83
2022-12-11T02:02:37.355Z,0.83
2022-12-11T02:05:06.553Z,0.83
2022-12-11T02:07:45.912Z,0.83
2022-12-11T02:10:13.244Z,0.84
2022-12-11T02:12:51.619Z,0.85
2022-12-11T02:15:56.614Z,0.83
2022-12-11T02:18:30.714Z,0.85
2022-12-11T02:21:08.893Z,0.85
2022-12-11T02:24:00.608Z,0.85
2022-12-11T02:26:36.890Z,0.87
2022-12-11T02:29:10.882Z,0.86
2022-12-11T02:31:56.767Z,0.85
2022-12-11T02:34:30.854Z,0.88
2022-12-11T02:37:02.267Z,0.88
2022-12-11T02:39:31.223Z,0.88
2022-12-11T02:41:59.683Z,0.87
2022-12-11T02:44:30.301Z,0.87
2022-12-11T02:46:59.308Z,0.88
2022-12-11T02:49:26.861Z,0.88
2022-12-11T02:51:56.628Z,0.91
2022-12-11T02:54:30.212Z,0.89
2022-12-11T02:57:06.327Z,0.90
2022-12-11T02:59:41.535Z,0.91
2022-12-11T03:02:08.343Z,0.93
2022-12-11T03:04:36.549Z,0.93
2022-12-11T03:07:12.383Z,0.94
2022-12-11T03:09:43.320Z,0.95
2022-12-11T03:12:12.708Z,0.95
2022-12-11T03:14:42.050Z,0.95
2022-12-11T03:17:16.745Z,0.95
2022-12-11T03:19:50.123Z,0.96
2022-12-11T03:22:22.094Z,0.98
2022-12-11T03:24:58.484Z,0.98
2022-12-11T03:27:36.656Z,0.99
2022-12-11T03:30:16.319Z,0.99
2022-12-11T03:32:50.267Z,1.00
2022-12-11T03:35:23.381Z,1.01
2022-12-11T03:37:53.029Z,1.02
2022-12-11T03:40:21.371Z,1.01
2022-12-11T03:42:51.516Z,1.02
2022-12-11T03:45:20.646Z,1.02
2022-12-11T03:47:48.179Z,1.03
2022-12-11T03:50:19.212Z,1.03
2022-12-11T03:52:47.737Z,1.02
2022-12-11T03:55:17.163Z,1.03
2022-12-11T03:57:43.993Z,1.03
2022-12-11T04:00:13.899Z,1.02
2022-12-11T04:02:41.468Z,1.02
2022-12-11T04:05:09.617Z,1.03
2022-12-11T04:07:36.405Z,1.04
2022-12-11T04:10:04.693Z,1.03
2022-12-11T04:12:31.261Z,1.02
2022-12-11T04:15:03.567Z,1.03
2022-12-11T04:17:50.770Z,1.03
2022-12-11T04:20:35.784Z,1.03
2022-12-11T04:23:32.216Z,1.03
2022-12-11T04:26:12.007Z,1.01
2022-12-11T04:28:38.898Z,1.01
2022-12-11T04:31:05.672Z,1.02
2022-12-11T04:33:32.311Z,1.01
2022-12-11T04:35:59.705Z,1.01
2022-12-11T04:38:26.817Z,1.03
2022-12-11T04:41:12.566Z,1.03
2022-12-11T04:43:39.911Z,1.03
2022-12-11T04:46:12.754Z,1.02
2022-12-11T04:48:39.841Z,1.01
2022-12-11T04:51:07.727Z,1.01
2022-12-11T04:53:34.841Z,1.03
2022-12-11T04:56:01.721Z,1.02
2022-12-11T04:58:28.463Z,1.00
2022-12-11T05:00:54.969Z,1.00
2022-12-11T05:03:22.048Z,0.99
2022-12-11T05:05:50.707Z,1.01
2022-12-11T05:08:21.606Z,0.99
2022-12-11T05:10:59.793Z,0.99
2022-12-11T05:13:27.393Z,0.99
2022-12-11T05:15:54.196Z,0.99
2022-12-11T05:18:21.046Z,1.00
2022-12-11T05:21:09.121Z,1.00
2022-12-11T05:23:36.422Z,0.98
2022-12-11T05:26:06.107Z,0.98
2022-12-11T05:28:35.348Z,0.98
2022-12-11T05:31:14.631Z,0.98
2022-12-11T05:33:41.697Z,0.95
2022-12-11T05:36:09.790Z,0.96
2022-12-11T05:38:36.301Z,0.95
2022-12-11T05:41:05.914Z,0.95
2022-12-11T05:43:34.861Z,0.98
2022-12-11T05:46:09.827Z,0.97
2022-12-11T05:48:36.859Z,0.95
2022-12-11T05:51:04.961Z,0.95
2022-12-11T05:53:31.738Z,0.95
2022-12-11T05:56:08.860Z,0.93
2022-12-11T05:58:35.951Z,0.93
2022-12-11T06:01:07.705Z,0.94
2022-12-11T06:03:34.203Z,0.92
2022-12-11T06:06:05.939Z,0.92
2022-12-11T06:08:32.896Z,0.92
2022-12-11T06:10:59.722Z,0.90
2022-12-11T06:13:27.094Z,0.92
2022-12-11T06:15:53.571Z,0.93
2022-12-11T06:18:20.103Z,0.90
2022-12-11T06:20:46.666Z,0.91
2022-12-11T06:23:13.254Z,0.89
2022-12-11T06:25:40.228Z,0.89
2022-12-11T06:28:06.980Z,0.90
2022-12-11T06:30:39.153Z,0.89
2022-12-11T06:33:06.332Z,0.88
2022-12-11T06:35:35.138Z,0.88
2022-12-11T06:38:06.668Z,0.89
2022-12-11T06:40:33.135Z,0.89
2022-12-11T06:42:59.596Z,0.90
2022-12-11T06:45:26.423Z,0.87
2022-12-11T06:47:52.990Z,0.86
2022-12-11T06:50:19.670Z,0.87
2022-12-11T06:52:46.134Z,0.87
2022-12-11T06:55:12.993Z,0.88
2022-12-11T06:57:39.802Z,0.86
2022-12-11T07:00:07.079Z,0.85
2022-12-11T07:02:34.426Z,0.85
2022-12-11T07:05:00.991Z,0.85
2022-12-11T07:07:27.545Z,0.86
2022-12-11T07:09:54.101Z,0.85
2022-12-11T07:12:21.128Z,0.87
2022-12-11T07:14:47.625Z,0.85
2022-12-11T07:17:14.164Z,0.85
2022-12-11T07:19:41.017Z,0.85
2022-12-11T07:22:07.569Z,0.83
2022-12-11T07:24:34.115Z,0.86
2022-12-11T07:27:00.723Z,0.86
2022-12-11T07:29:27.329Z,0.86
2022-12-11T07:31:54.178Z,0.88
2022-12-11T07:34:20.838Z,0.87
2022-12-11T07:36:47.386Z,0.89
2022-12-11T07:39:13.959Z,0.90
2022-12-11T07:41:40.570Z,0.91
2022-12-11T07:44:07.118Z,0.90
2022-12-11T07:46:34.554Z,0.88
2022-12-11T07:49:01.503Z,0.88
2022-12-11T07:51:31.186Z,0.87
2022-12-11T07:54:00.558Z,0.86
2022-12-11T07:56:28.604Z,0.87
2022-12-11T07:58:55.556Z,0.87
2022-12-11T08:01:25.979Z,0.86
2022-12-11T08:03:53.648Z,0.86
2022-12-11T08:06:24.972Z,0.86
2022-12-11T08:08:53.060Z,0.87
2022-12-11T08:11:19.597Z,0.85
2022-12-11T08:13:46.277Z,0.85
2022-12-11T08:16:14.947Z,0.85
2022-12-11T08:18:42.148Z,0.84
2022-12-11T08:21:11.088Z,0.83
2022-12-11T08:23:37.922Z,0.84
2022-12-11T08:26:06.390Z,0.81
2022-12-11T08:28:33.190Z,0.80
2022-12-11T08:31:00.303Z,0.81
2022-12-11T08:33:26.981Z,0.81
2022-12-11T08:35:53.488Z,0.81
2022-12-11T08:38:25.211Z,0.81
2022-12-11T08:40:52.117Z,0.82
2022-12-11T08:43:18.614Z,0.84
2022-12-11T08:45:46.775Z,0.82
2022-12-11T08:48:13.376Z,0.81
2022-12-11T08:50:39.881Z,0.81
2022-12-11T08:53:06.459Z,0.82
2022-12-11T08:55:33.402Z,0.83
2022-12-11T08:58:00.304Z,0.84
2022-12-11T09:00:26.867Z,0.86
2022-12-11T09:02:53.409Z,0.85
2022-12-11T09:05:20.087Z,0.84
2022-12-11T09:07:46.805Z,0.84
2022-12-11T09:10:13.431Z,0.85
2022-12-11T09:12:40.113Z,0.85
2022-12-11T09:15:07.035Z,0.88
2022-12-11T09:17:34.698Z,0.89
2022-12-11T09:20:01.535Z,0.91
2022-12-11T09:22:28.542Z,0.93
2022-12-11T09:24:55.072Z,0.90
2022-12-11T09:27:22.142Z,0.96
2022-12-11T09:29:49.318Z,1.01
2022-12-11T09:32:15.846Z,1.06
2022-12-11T09:34:42.394Z,1.12
2022-12-11T09:37:09.280Z,1.14
2022-12-11T09:39:35.738Z,1.15
2022-12-11T09:42:07.785Z,1.19
2022-12-11T09:44:45.958Z,1.24
2022-12-11T09:47:20.925Z,1.24
2022-12-11T09:49:49.748Z,1.28
2022-12-11T09:52:23.386Z,1.33
2022-12-11T09:54:56.202Z,1.33
2022-12-11T09:57:28.874Z,1.36
2022-12-11T10:00:13.946Z,1.41
2022-12-11T10:03:12.732Z,1.39
2022-12-11T10:06:05.044Z,1.43
2022-12-11T10:08:46.755Z,1.51
2022-12-11T10:11:34.699Z,1.53
2022-12-11T10:14:17.014Z,1.60
2022-12-11T10:16:57.911Z,1.64
2022-12-11T10:19:30.160Z,1.65
2022-12-11T10:21:58.592Z,1.67
2022-12-11T10:25:09.462Z,1.66
2022-12-11T10:27:31.398Z,1.63
2022-12-11T10:30:13.498Z,1.61
2022-12-11T10:33:18.230Z,1.61
2022-12-11T10:35:55.761Z,1.63
2022-12-11T10:38:30.237Z,1.68
2022-12-11T10:41:03.881Z,1.73
2022-12-11T10:43:44.280Z,1.76
2022-12-11T10:46:18.572Z,1.82
2022-12-11T10:48:54.702Z,1.84
2022-12-11T10:51:24.160Z,1.84
2022-12-11T10:53:58.154Z,1.82
2022-12-11T10:56:29.643Z,1.80
2022-12-11T10:58:58.510Z,1.80
2022-12-11T11:01:27.967Z,1.82
2022-12-11T11:03:57.538Z,1.86
2022-12-11T11:06:25.064Z,1.82
2022-12-11T11:08:59.065Z,1.83
2022-12-11T11:11:38.117Z,1.78
2022-12-11T11:14:19.636Z,1.79
2022-12-11T11:16:48.689Z,1.78
2022-12-11T11:19:36.263Z,1.79
2022-12-11T11:22:12.766Z,1.82
2022-12-11T11:24:45.306Z,1.87
2022-12-11T11:27:32.080Z,1.93
2022-12-11T11:30:03.659Z,1.92
2022-12-11T11:32:30.166Z,1.94
2022-12-11T11:35:06.618Z,1.99
2022-12-11T11:37:34.358Z,2.05
2022-12-11T11:40:11.116Z,2.04
2022-12-11T11:42:49.985Z,2.06
2022-12-11T11:45:24.479Z,2.09
2022-12-11T11:48:16.656Z,2.11
2022-12-11T11:50:46.416Z,2.12
2022-12-11T11:53:20.873Z,2.17
2022-12-11T11:55:58.539Z,2.16
2022-12-11T11:58:33.304Z,2.16
2022-12-11T12:00:59.814Z,2.18
2022-12-11T12:03:28.735Z,2.23
2022-12-11T12:05:57.786Z,2.26
2022-12-11T12:08:42.747Z,2.24
2022-12-11T12:11:16.371Z,2.21
2022-12-11T12:13:54.287Z,2.17
2022-12-11T12:16:56.372Z,2.14
2022-12-11T12:19:41.777Z,2.09
2022-12-11T12:22:31.173Z,2.09
2022-12-11T12:25:21.098Z,2.12
2022-12-11T12:28:14.656Z,2.12
2022-12-11T12:31:16.367Z,2.15
2022-12-11T12:34:17.289Z,2.18
2022-12-11T12:37:17.447Z,2.23
2022-12-11T12:40:02.758Z,2.23
2022-12-11T12:42:39.128Z,2.25
2022-12-11T12:45:23.033Z,2.26
2022-12-11T12:47:53.519Z,2.25
2022-12-11T12:50:23.819Z,2.25
2022-12-11T12:52:53.012Z,2.23
2022-12-11T12:55:24.670Z,2.24
2022-12-11T12:58:07.795Z,2.22
2022-12-11T13:00:40.252Z,2.21
2022-12-11T13:03:23.481Z,2.18
2022-12-11T13:06:06.070Z,2.13
2022-12-11T13:09:10.738Z,2.10
2022-12-11T13:11:37.274Z,2.09
2022-12-11T13:14:15.620Z,2.12
2022-12-11T13:16:44.375Z,2.11
2022-12-11T13:19:23.271Z,2.10
2022-12-11T13:22:14.730Z,2.09
2022-12-11T13:24:53.448Z,2.09
2022-12-11T13:27:29.995Z,2.05
2022-12-11T13:30:22.928Z,2.06
2022-12-11T13:33:07.615Z,2.07
2022-12-11T13:35:35.425Z,2.10
2022-12-11T13:38:07.092Z,2.09
2022-12-11T13:40:39.455Z,2.08
2022-12-11T13:43:28.932Z,2.06
2022-12-11T13:46:01.713Z,2.05
2022-12-11T13:48:34.693Z,2.05
2022-12-11T13:51:02.689Z,2.06
2022-12-11T13:53:29.550Z,2.05
2022-12-11T13:56:05.007Z,2.02
2022-12-11T13:58:35.531Z,1.99
2022-12-11T14:01:11.304Z,1.94
2022-12-11T14:03:48.160Z,1.94
2022-12-11T14:06:18.804Z,1.93
2022-12-11T14:08:52.889Z,1.91
2022-12-11T14:11:30.100Z,1.87
2022-12-11T14:14:00.476Z,1.85
2022-12-11T14:16:27.810Z,1.86
2022-12-11T14:18:59.758Z,1.82
2022-12-11T14:21:26.390Z,1.81
2022-12-11T14:23:56.489Z,1.80
2022-12-11T14:26:26.108Z,1.78
2022-12-11T14:28:52.975Z,1.78
2022-12-11T14:31:57.184Z,1.76
2022-12-11T14:34:36.454Z,1.76
2022-12-11T14:37:06.444Z,1.76
2022-12-11T14:39:45.461Z,1.75
2022-12-11T14:42:18.065Z,1.74
2022-12-11T14:45:11.813Z,1.74
2022-12-11T14:47:42.747Z,1.75
2022-12-11T14:50:26.277Z,1.74
2022-12-11T14:53:00.646Z,1.75
2022-12-11T14:55:34.975Z,1.76
2022-12-11T14:58:14.196Z,1.76
2022-12-11T15:00:40.855Z,1.74
2022-12-11T15:03:10.411Z,1.68
2022-12-11T15:05:50.010Z,1.69
2022-12-11T15:08:28.571Z,1.69
2022-12-11T15:11:14.154Z,1.68
2022-12-11T15:13:58.946Z,1.67
2022-12-11T15:16:28.078Z,1.67
2022-12-11T15:18:56.142Z,1.66
2022-12-11T15:21:35.364Z,1.61
2022-12-11T15:24:06.991Z,1.62
2022-12-11T15:26:47.936Z,1.61
2022-12-11T15:29:33.316Z,1.60
2022-12-11T15:32:21.747Z,1.59
2022-12-11T15:34:56.312Z,1.58
2022-12-11T15:37:30.809Z,1.57
2022-12-11T15:39:59.943Z,1.56
2022-12-11T15:42:30.304Z,1.55
2022-12-11T15:44:57.776Z,1.54
2022-12-11T15:47:28.061Z,1.52
2022-12-11T15:50:16.536Z,1.52
2022-12-11T15:52:43.746Z,1.52
2022-12-11T15:55:11.252Z,1.51
2022-12-11T15:57:40.339Z,1.52
2022-12-11T16:00:07.635Z,1.51
2022-12-11T16:02:34.353Z,1.49
2022-12-11T16:05:00.992Z,1.48
2022-12-11T16:07:30.241Z,1.47
2022-12-11T16:09:56.727Z,1.47
2022-12-11T16:12:23.220Z,1.44
2022-12-11T16:14:49.699Z,1.44
2022-12-11T16:17:16.358Z,1.47
2022-12-11T16:19:44.690Z,1.45
2022-12-11T16:22:13.239Z,1.44
2022-12-11T16:24:40.439Z,1.44
2022-12-11T16:27:09.420Z,1.42
2022-12-11T16:29:38.203Z,1.43
2022-12-11T16:32:07.075Z,1.43
2022-12-11T16:34:34.758Z,1.42
2022-12-11T16:37:02.179Z,1.43
2022-12-11T16:39:29.017Z,1.42
2022-12-11T16:41:55.516Z,1.42
2022-12-11T16:44:24.910Z,1.39
2022-12-11T16:46:52.798Z,1.38
2022-12-11T16:49:20.666Z,1.36
2022-12-11T16:51:49.230Z,1.35
2022-12-11T16:54:16.532Z,1.32
2022-12-11T16:56:43.168Z,1.33
2022-12-11T16:59:09.781Z,1.35
2022-12-11T17:01:36.465Z,1.36
2022-12-11T17:04:03.009Z,1.35
2022-12-11T17:06:29.658Z,1.34
2022-12-11T17:08:56.525Z,1.35
2022-12-11T17:11:25.024Z,1.35
2022-12-11T17:13:55.975Z,1.35
2022-12-11T17:16:24.877Z,1.36
2022-12-11T17:18:52.290Z,1.36
2022-12-11T17:21:20.809Z,1.33
2022-12-11T17:23:47.377Z,1.31
2022-12-11T17:26:14.673Z,1.29
2022-12-11T17:28:41.229Z,1.28
2022-12-11T17:31:09.966Z,1.29
2022-12-11T17:33:36.355Z,1.29
2022-12-11T17:36:05.422Z,1.29
2022-12-11T17:38:31.993Z,1.29
2022-12-11T17:40:58.777Z,1.27
2022-12-11T17:43:25.357Z,1.27
2022-12-11T17:45:52.910Z,1.27
2022-12-11T17:48:22.356Z,1.28
2022-12-11T17:50:50.045Z,1.27
2022-12-11T17:53:18.342Z,1.25
2022-12-11T17:55:46.329Z,1.26
2022-12-11T17:58:18.318Z,1.26
2022-12-11T18:00:46.457Z,1.24
2022-12-11T18:03:13.343Z,1.24
2022-12-11T18:05:45.981Z,1.24
2022-12-11T18:08:14.839Z,1.24
2022-12-11T18:10:41.795Z,1.24
2022-12-11T18:13:08.784Z,1.23
2022-12-11T18:15:35.847Z,1.22
2022-12-11T18:18:02.369Z,1.26
2022-12-11T18:20:30.336Z,1.25
2022-12-11T18:22:56.954Z,1.24
2022-12-11T18:25:24.057Z,1.24
2022-12-11T18:27:51.537Z,1.24
2022-12-11T18:30:19.581Z,1.25
2022-12-11T18:32:46.179Z,1.24
2022-12-11T18:35:12.978Z,1.24
2022-12-11T18:37:41.099Z,1.24
2022-12-11T18:40:08.899Z,1.24
2022-12-11T18:42:36.114Z,1.23
2022-12-11T18:45:03.294Z,1.24
2022-12-11T18:47:29.774Z,1.22
2022-12-11T18:49:56.257Z,1.22
2022-12-11T18:52:22.826Z,1.21
2022-12-11T18:54:51.426Z,1.20
2022-12-11T18:57:18.161Z,1.18
2022-12-11T18:59:44.953Z,1.16
2022-12-11T19:02:12.536Z,1.14
2022-12-11T19:04:39.181Z,1.12
2022-12-11T19:07:05.718Z,1.12
2022-12-11T19:09:36.999Z,1.09
2022-12-11T19:12:05.099Z,1.07
2022-12-11T19:14:31.590Z,1.09
2022-12-11T19:16:58.340Z,1.08
2022-12-11T19:19:24.871Z,1.06
2022-12-11T19:21:51.713Z,1.07
2022-12-11T19:24:21.567Z,1.05
2022-12-11T19:26:48.412Z,1.03
2022-12-11T19:29:29.376Z,1.02
2022-12-11T19:31:56.086Z,1.00
2022-12-11T19:34:23.743Z,1.01
2022-12-11T19:36:50.617Z,1.01
2022-12-11T19:39:17.755Z,1.00
2022-12-11T19:41:44.296Z,0.97
2022-12-11T19:44:11.566Z,0.96
2022-12-11T19:46:38.897Z,0.96
2022-12-11T19:49:05.940Z,0.98
2022-12-11T19:51:38.237Z,0.99
2022-12-11T19:54:07.939Z,0.99
2022-12-11T19:56:35.738Z,1.00
2022-12-11T19:59:05.584Z,0.98
2022-12-11T20:01:34.415Z,0.94
2022-12-11T20:04:04.491Z,0.90
2022-12-11T20:06:35.379Z,0.89
2022-12-11T20:09:03.568Z,0.88
2022-12-11T20:11:31.880Z,0.83
2022-12-11T20:13:58.801Z,0.82
2022-12-11T20:16:53.395Z,0.83
2022-12-11T20:19:12.256Z,0.83
2022-12-11T20:21:38.779Z,0.82
2022-12-11T20:24:05.612Z,0.81
2022-12-11T20:26:35.958Z,0.82
2022-12-11T20:29:05.295Z,0.81
2022-12-11T20:31:33.108Z,0.83
2022-12-11T20:33:59.786Z,0.84
2022-12-11T20:36:26.945Z,0.85
2022-12-11T20:38:53.789Z,0.87
2022-12-11T20:41:23.243Z,0.85
2022-12-11T20:43:50.570Z,0.76
2022-12-11T20:46:18.528Z,0.70
2022-12-11T20:48:45.905Z,0.73
2022-12-11T20:51:14.545Z,0.75
2022-12-11T20:53:42.360Z,0.79
2022-12-11T20:56:29.016Z,0.81
2022-12-11T20:58:56.653Z,0.82
2022-12-11T21:01:25.830Z,0.82
2022-12-11T21:03:53.676Z,0.82
2022-12-11T21:06:20.200Z,0.75
2022-12-11T21:08:46.848Z,0.73
2022-12-11T21:11:13.525Z,0.76
2022-12-11T21:13:40.472Z,0.79
2022-12-11T21:16:08.545Z,0.75
2022-12-11T21:18:35.123Z,0.66
2022-12-11T21:21:01.885Z,0.65
2022-12-11T21:23:28.488Z,0.70
2022-12-11T21:25:57.924Z,0.73
2022-12-11T21:28:24.452Z,0.70
2022-12-11T21:30:51.169Z,0.67
2022-12-11T21:33:17.693Z,0.67
2022-12-11T21:35:44.389Z,0.69
2022-12-11T21:38:11.009Z,0.72
2022-12-11T21:40:37.520Z,0.72
2022-12-11T21:43:03.984Z,0.75
2022-12-11T21:48:20.889Z,0.76
2022-12-11T21:50:47.468Z,0.77
2022-12-11T21:53:13.971Z,0.75
2022-12-11T21:55:42.362Z,0.75
2022-12-11T21:58:09.437Z,0.71
2022-12-11T22:00:38.287Z,0.68
2022-12-11T22:03:05.058Z,0.68
2022-12-11T22:05:31.618Z,0.71
2022-12-11T22:07:58.283Z,0.72
2022-12-11T22:10:24.917Z,0.71
2022-12-11T22:12:51.897Z,0.70
2022-12-11T22:15:18.474Z,0.66
2022-12-11T22:17:45.216Z,0.68
2022-12-11T22:20:11.861Z,0.70
2022-12-11T22:22:38.319Z,0.72
2022-12-11T22:25:07.801Z,0.71
2022-12-11T22:27:34.454Z,0.71
2022-12-11T22:30:01.012Z,0.71
2022-12-11T22:32:27.809Z,0.71
2022-12-11T22:34:56.313Z,0.72
2022-12-11T22:37:22.993Z,0.71
2022-12-11T22:39:49.692Z,0.68
2022-12-11T22:42:16.603Z,0.70
2022-12-11T22:44:43.126Z,0.63
2022-12-11T22:47:09.655Z,0.66
2022-12-11T22:49:36.197Z,0.66
2022-12-11T22:52:03.209Z,0.70
2022-12-11T22:54:29.816Z,0.69
2022-12-11T22:56:56.288Z,0.70
2022-12-11T22:59:23.326Z,0.70
2022-12-11T23:01:49.964Z,0.68
2022-12-11T23:04:16.479Z,0.69
2022-12-11T23:06:43.031Z,0.70
2022-12-11T23:09:10.675Z,0.68
2022-12-11T23:11:38.936Z,0.68
2022-12-11T23:14:07.793Z,0.67
2022-12-11T23:16:34.533Z,0.66
2022-12-11T23:19:01.267Z,0.66
2022-12-11T23:21:28.756Z,0.68
2022-12-11T23:23:56.746Z,0.64
2022-12-11T23:26:23.435Z,0.64
2022-12-11T23:28:50.435Z,0.62
2022-12-11T23:31:17.217Z,0.62
2022-12-11T23:33:43.913Z,0.64
2022-12-11T23:36:10.877Z,0.62
2022-12-11T23:38:38.234Z,0.62
2022-12-11T23:41:06.126Z,0.61
2022-12-11T23:43:35.326Z,0.62
2022-12-11T23:46:03.328Z,0.61
2022-12-11T23:48:30.104Z,0.63
2022-12-11T23:51:01.115Z,0.63
2022-12-11T23:53:28.769Z,0.61
2022-12-11T23:55:55.416Z,0.60
2022-12-11T23:58:22.451Z,0.58
